createdAt,value
2022-07-29T00:00:00.368Z,40.9
2022-07-29T00:01:00.370Z,41.0
2022-07-29T00:02:00.420Z,41.2
2022-07-29T00:03:00.470Z,41.1
2022-07-29T00:04:00.389Z,41.1
2022-07-29T00:05:00.321Z,41.1
2022-07-29T00:06:00.894Z,41.2
2022-07-29T00:07:00.403Z,41.3
2022-07-29T00:08:00.401Z,41.2
2022-07-29T00:09:00.358Z,41.2
2022-07-29T00:10:00.342Z,41.2
2022-07-29T00:11:00.310Z,41.1
2022-07-29T00:12:00.408Z,41.2
2022-07-29T00:13:00.304Z,41.4
2022-07-29T00:14:00.303Z,41.5
2022-07-29T00:15:00.390Z,41.9
2022-07-29T00:16:04.887Z,41.9
2022-07-29T00:17:00.340Z,42.0
2022-07-29T00:18:00.461Z,42.0
2022-07-29T00:19:02.243Z,42.0
2022-07-29T00:20:00.355Z,41.9
2022-07-29T00:21:00.372Z,41.9
2022-07-29T00:22:00.291Z,42.1
2022-07-29T00:23:00.468Z,42.2
2022-07-29T00:24:00.286Z,42.2
2022-07-29T00:25:00.528Z,42.4
2022-07-29T00:26:00.288Z,42.5
2022-07-29T00:27:00.279Z,42.6
2022-07-29T00:28:00.376Z,42.6
2022-07-29T00:29:31.904Z,42.6
2022-07-29T00:30:00.293Z,42.6
2022-07-29T00:31:00.538Z,42.6
2022-07-29T00:32:00.427Z,42.4
2022-07-29T00:33:00.315Z,42.4
2022-07-29T00:34:00.297Z,42.2
2022-07-29T00:35:00.314Z,42.4
2022-07-29T00:36:00.397Z,42.5
2022-07-29T00:37:00.292Z,42.5
2022-07-29T00:38:00.395Z,42.5
2022-07-29T00:39:00.323Z,42.7
2022-07-29T00:40:00.449Z,42.8
2022-07-29T00:41:00.368Z,43.0
2022-07-29T00:42:00.470Z,43.1
2022-07-29T00:43:00.413Z,43.2
2022-07-29T00:44:00.357Z,43.3
2022-07-29T00:45:00.278Z,43.3
2022-07-29T00:46:00.380Z,43.3
2022-07-29T00:47:00.449Z,43.2
2022-07-29T00:48:00.330Z,43.1
2022-07-29T00:49:00.420Z,43.1
2022-07-29T00:50:00.281Z,43.1
2022-07-29T00:51:00.383Z,43.0
2022-07-29T00:52:00.396Z,42.9
2022-07-29T00:53:00.314Z,43.1
2022-07-29T00:54:00.306Z,43.3
2022-07-29T00:55:04.959Z,43.4
2022-07-29T00:56:00.390Z,43.5
2022-07-29T00:57:00.493Z,43.5
2022-07-29T00:58:00.336Z,43.5
2022-07-29T00:59:00.387Z,43.5
2022-07-29T01:00:00.419Z,43.4
2022-07-29T01:01:00.442Z,43.2
2022-07-29T01:02:00.493Z,43.2
2022-07-29T01:03:00.363Z,43.2
2022-07-29T01:04:00.385Z,43.2
2022-07-29T01:05:00.334Z,43.3
2022-07-29T01:06:00.312Z,43.6
2022-07-29T01:07:00.392Z,43.7
2022-07-29T01:08:00.403Z,43.7
2022-07-29T01:09:00.392Z,43.6
2022-07-29T01:10:00.406Z,43.6
2022-07-29T01:11:00.324Z,43.6
2022-07-29T01:12:00.285Z,43.4
2022-07-29T01:13:00.293Z,43.4
2022-07-29T01:14:00.295Z,43.4
2022-07-29T01:15:00.425Z,43.4
2022-07-29T01:16:00.372Z,43.3
2022-07-29T01:17:00.347Z,43.5
2022-07-29T01:18:00.353Z,43.5
2022-07-29T01:19:00.424Z,43.6
2022-07-29T01:20:00.304Z,43.5
2022-07-29T01:21:00.383Z,43.5
2022-07-29T01:22:00.360Z,43.5
2022-07-29T01:23:00.503Z,43.5
2022-07-29T01:24:00.309Z,43.4
2022-07-29T01:25:00.566Z,43.3
2022-07-29T01:26:00.306Z,43.3
2022-07-29T01:27:00.297Z,43.6
2022-07-29T01:28:00.347Z,43.8
2022-07-29T01:29:00.313Z,44.0
2022-07-29T01:30:00.392Z,44.2
2022-07-29T01:31:00.381Z,44.3
2022-07-29T01:32:01.162Z,44.3
2022-07-29T01:33:00.307Z,44.3
2022-07-29T01:34:00.301Z,44.4
2022-07-29T01:35:00.311Z,44.4
2022-07-29T01:36:00.363Z,44.7
2022-07-29T01:37:00.366Z,44.6
2022-07-29T01:38:00.384Z,44.5
2022-07-29T01:39:00.294Z,44.5
2022-07-29T01:40:00.409Z,44.4
2022-07-29T01:41:00.369Z,44.3
2022-07-29T01:42:00.302Z,44.3
2022-07-29T01:43:00.332Z,44.3
2022-07-29T01:44:00.330Z,44.4
2022-07-29T01:45:00.379Z,44.5
2022-07-29T01:46:00.337Z,44.5
2022-07-29T01:47:00.409Z,44.6
2022-07-29T01:48:00.336Z,44.6
2022-07-29T01:49:00.415Z,44.5
2022-07-29T01:50:00.430Z,44.1
2022-07-29T01:51:00.314Z,44.1
2022-07-29T01:52:00.307Z,44.1
2022-07-29T01:53:00.377Z,44.2
2022-07-29T01:54:00.285Z,44.3
2022-07-29T01:55:00.281Z,44.5
2022-07-29T01:56:00.620Z,44.7
2022-07-29T01:57:00.327Z,44.7
2022-07-29T01:58:00.337Z,44.7
2022-07-29T01:59:00.328Z,44.6
2022-07-29T02:00:00.395Z,44.6
2022-07-29T02:01:00.328Z,44.5
2022-07-29T02:02:00.521Z,44.6
2022-07-29T02:03:00.328Z,44.7
2022-07-29T02:04:00.301Z,44.6
2022-07-29T02:05:00.466Z,44.7
2022-07-29T02:06:00.372Z,44.8
2022-07-29T02:07:00.319Z,44.8
2022-07-29T02:08:00.311Z,44.7
2022-07-29T02:09:00.310Z,44.7
2022-07-29T02:10:00.294Z,44.6
2022-07-29T02:11:00.387Z,44.6
2022-07-29T02:12:00.313Z,44.6
2022-07-29T02:13:00.308Z,44.5
2022-07-29T02:14:00.388Z,44.5
2022-07-29T02:15:00.280Z,44.4
2022-07-29T02:16:00.422Z,44.4
2022-07-29T02:17:00.394Z,44.2
2022-07-29T02:18:00.285Z,44.1
2022-07-29T02:19:00.336Z,44.1
2022-07-29T02:20:00.335Z,44.1
2022-07-29T02:21:00.334Z,44.0
2022-07-29T02:22:00.279Z,44.0
2022-07-29T02:23:00.378Z,43.9
2022-07-29T02:24:00.301Z,43.7
2022-07-29T02:25:00.879Z,43.5
2022-07-29T02:26:00.294Z,43.3
2022-07-29T02:27:00.290Z,42.9
2022-07-29T02:28:00.456Z,42.0
2022-07-29T02:29:00.424Z,41.8
2022-07-29T02:30:00.292Z,41.0
2022-07-29T02:31:00.372Z,40.9
2022-07-29T02:32:00.309Z,40.7
2022-07-29T02:33:00.311Z,40.4
2022-07-29T02:34:00.406Z,39.7
2022-07-29T02:35:00.301Z,38.8
2022-07-29T02:36:00.338Z,38.7
2022-07-29T02:37:00.294Z,37.9
2022-07-29T02:38:00.399Z,38.0
2022-07-29T02:39:00.332Z,38.4
2022-07-29T02:40:00.288Z,38.3
2022-07-29T02:41:00.329Z,38.2
2022-07-29T02:42:00.312Z,38.1
2022-07-29T02:43:00.380Z,38.6
2022-07-29T02:44:00.462Z,38.9
2022-07-29T02:45:00.307Z,38.8
2022-07-29T02:46:00.436Z,39.0
2022-07-29T02:47:00.389Z,38.6
2022-07-29T02:48:00.309Z,38.5
2022-07-29T02:49:00.557Z,38.8
2022-07-29T02:50:00.619Z,39.2
2022-07-29T02:51:00.289Z,39.5
2022-07-29T02:52:00.297Z,39.6
2022-07-29T02:53:00.370Z,39.6
2022-07-29T02:54:00.310Z,39.7
2022-07-29T02:55:00.370Z,40.0
2022-07-29T02:56:00.343Z,39.9
2022-07-29T02:57:00.292Z,40.2
2022-07-29T02:58:00.523Z,40.1
2022-07-29T02:59:00.295Z,40.2
2022-07-29T03:00:00.281Z,40.6
2022-07-29T03:01:00.294Z,40.7
2022-07-29T03:02:00.363Z,40.8
2022-07-29T03:03:00.297Z,40.8
2022-07-29T03:04:00.388Z,40.9
2022-07-29T03:05:00.374Z,40.8
2022-07-29T03:06:00.303Z,40.8
2022-07-29T03:07:00.290Z,40.9
2022-07-29T03:08:00.299Z,40.8
2022-07-29T03:09:00.288Z,40.9
2022-07-29T03:10:00.409Z,40.9
2022-07-29T03:11:00.288Z,41.0
2022-07-29T03:12:00.299Z,41.1
2022-07-29T03:13:00.310Z,41.2
2022-07-29T03:14:00.364Z,41.2
2022-07-29T03:15:00.301Z,41.2
2022-07-29T03:16:00.387Z,41.0
2022-07-29T03:17:00.288Z,41.0
2022-07-29T03:18:00.361Z,41.0
2022-07-29T03:19:00.361Z,40.9
2022-07-29T03:20:00.364Z,41.0
2022-07-29T03:21:00.447Z,40.8
2022-07-29T03:22:00.350Z,40.9
2022-07-29T03:23:00.283Z,40.9
2022-07-29T03:24:00.294Z,40.7
2022-07-29T03:25:00.398Z,40.5
2022-07-29T03:26:00.402Z,40.5
2022-07-29T03:27:00.302Z,40.5
2022-07-29T03:28:00.423Z,40.3
2022-07-29T03:29:00.274Z,40.3
2022-07-29T03:30:00.569Z,40.3
2022-07-29T03:31:00.325Z,40.1
2022-07-29T03:32:00.274Z,40.0
2022-07-29T03:33:00.296Z,39.8
2022-07-29T03:34:00.327Z,39.7
2022-07-29T03:35:00.350Z,39.8
2022-07-29T03:36:00.373Z,39.5
2022-07-29T03:37:00.381Z,39.2
2022-07-29T03:38:00.291Z,39.2
2022-07-29T03:39:00.320Z,39.2
2022-07-29T03:40:00.304Z,39.1
2022-07-29T03:41:00.308Z,39.2
2022-07-29T03:42:00.328Z,39.3
2022-07-29T03:43:00.433Z,39.4
2022-07-29T03:44:00.303Z,39.5
2022-07-29T03:45:00.304Z,39.3
2022-07-29T03:46:00.363Z,39.2
2022-07-29T03:47:00.413Z,39.3
2022-07-29T03:48:01.162Z,39.4
2022-07-29T03:49:00.490Z,39.4
2022-07-29T03:50:00.353Z,39.4
2022-07-29T03:51:00.357Z,39.4
2022-07-29T03:52:00.334Z,39.2
2022-07-29T03:53:00.308Z,39.1
2022-07-29T03:54:00.287Z,38.7
2022-07-29T03:55:00.301Z,38.7
2022-07-29T03:56:00.389Z,38.5
2022-07-29T03:57:00.378Z,38.2
2022-07-29T03:58:00.437Z,38.1
2022-07-29T03:59:00.383Z,38.1
2022-07-29T04:00:00.351Z,38.0
2022-07-29T04:01:00.337Z,37.5
2022-07-29T04:02:00.518Z,37.4
2022-07-29T04:03:00.370Z,37.3
2022-07-29T04:04:00.439Z,37.3
2022-07-29T04:05:00.370Z,37.1
2022-07-29T04:06:00.330Z,37.3
2022-07-29T04:07:00.316Z,36.7
2022-07-29T04:08:00.384Z,36.7
2022-07-29T04:09:00.284Z,36.5
2022-07-29T04:10:00.300Z,36.3
2022-07-29T04:11:00.301Z,36.2
2022-07-29T04:12:03.224Z,36.1
2022-07-29T04:13:00.351Z,35.9
2022-07-29T04:14:00.386Z,36.0
2022-07-29T04:15:00.375Z,36.1
2022-07-29T04:16:00.326Z,36.0
2022-07-29T04:17:00.292Z,35.9
2022-07-29T04:18:00.413Z,35.3
2022-07-29T04:19:00.274Z,34.9
2022-07-29T04:20:00.394Z,35.0
2022-07-29T04:21:00.307Z,34.8
2022-07-29T04:22:00.290Z,34.5
2022-07-29T04:23:00.292Z,34.6
2022-07-29T04:24:00.292Z,34.4
2022-07-29T04:25:03.745Z,34.6
2022-07-29T04:26:00.385Z,34.6
2022-07-29T04:27:00.311Z,34.1
2022-07-29T04:28:00.385Z,33.8
2022-07-29T04:29:00.274Z,33.5
2022-07-29T04:30:00.305Z,33.5
2022-07-29T04:31:00.359Z,33.6
2022-07-29T04:32:00.570Z,33.1
2022-07-29T04:33:00.293Z,32.8
2022-07-29T04:34:00.310Z,32.8
2022-07-29T04:35:00.387Z,32.9
2022-07-29T04:36:00.281Z,32.7
2022-07-29T04:37:00.307Z,32.9
2022-07-29T04:38:00.383Z,32.8
2022-07-29T04:39:00.346Z,32.7
2022-07-29T04:40:00.342Z,32.7
2022-07-29T04:41:00.376Z,32.4
2022-07-29T04:42:00.327Z,32.5
2022-07-29T04:43:00.292Z,32.4
2022-07-29T04:44:00.440Z,32.2
2022-07-29T04:45:01.266Z,32.2
2022-07-29T04:46:00.447Z,31.9
2022-07-29T04:47:00.326Z,31.0
2022-07-29T04:48:00.388Z,28.7
2022-07-29T04:49:00.534Z,27.9
2022-07-29T04:50:00.454Z,26.3
2022-07-29T04:51:00.315Z,25.3
2022-07-29T04:52:00.478Z,24.3
2022-07-29T04:53:00.360Z,23.9
2022-07-29T04:54:00.297Z,23.7
2022-07-29T04:55:00.325Z,23.5
2022-07-29T04:56:00.294Z,23.2
2022-07-29T04:57:00.289Z,22.7
2022-07-29T04:58:00.386Z,22.5
2022-07-29T04:59:00.283Z,22.0
2022-07-29T05:00:00.336Z,21.6
2022-07-29T05:01:00.299Z,21.3
2022-07-29T05:02:00.372Z,21.2
2022-07-29T05:03:00.440Z,20.8
2022-07-29T05:04:00.889Z,21.1
2022-07-29T05:05:00.316Z,21.0
2022-07-29T05:06:00.375Z,21.3
2022-07-29T05:07:00.328Z,20.8
2022-07-29T05:08:00.294Z,21.3
2022-07-29T05:09:00.297Z,21.3
2022-07-29T05:10:00.415Z,21.2
2022-07-29T05:11:11.733Z,20.9
2022-07-29T05:12:00.317Z,21.1
2022-07-29T05:13:00.406Z,21.5
2022-07-29T05:14:00.314Z,21.4
2022-07-29T05:15:00.297Z,21.2
2022-07-29T05:16:00.384Z,21.0
2022-07-29T05:17:00.286Z,20.9
2022-07-29T05:18:00.308Z,20.8
2022-07-29T05:19:00.398Z,21.0
2022-07-29T05:20:00.325Z,20.9
2022-07-29T05:21:00.424Z,20.5
2022-07-29T05:22:00.306Z,20.8
2022-07-29T05:23:00.302Z,21.1
2022-07-29T05:24:00.302Z,21.1
2022-07-29T05:25:03.301Z,21.4
2022-07-29T05:26:00.360Z,21.3
2022-07-29T05:27:00.380Z,21.6
2022-07-29T05:28:00.326Z,21.6
2022-07-29T05:29:00.323Z,21.4
2022-07-29T05:30:00.433Z,20.9
2022-07-29T05:31:00.350Z,21.0
2022-07-29T05:32:00.479Z,20.7
2022-07-29T05:33:00.465Z,21.1
2022-07-29T05:34:00.346Z,21.1
2022-07-29T05:35:00.322Z,21.2
2022-07-29T05:36:01.139Z,21.1
2022-07-29T05:37:00.333Z,21.0
2022-07-29T05:38:00.324Z,21.3
2022-07-29T05:39:00.461Z,21.2
2022-07-29T05:40:00.623Z,21.2
2022-07-29T05:41:00.532Z,21.4
2022-07-29T05:42:00.307Z,20.9
2022-07-29T05:43:00.310Z,20.9
2022-07-29T05:44:00.296Z,20.9
2022-07-29T05:45:00.294Z,21.2
2022-07-29T05:46:00.575Z,20.8
2022-07-29T05:47:00.311Z,20.9
2022-07-29T05:48:00.293Z,20.7
2022-07-29T05:49:00.318Z,20.7
2022-07-29T05:50:00.317Z,20.6
2022-07-29T05:51:00.300Z,20.8
2022-07-29T05:52:00.421Z,20.8
2022-07-29T05:53:00.296Z,20.6
2022-07-29T05:54:00.294Z,20.9
2022-07-29T05:55:00.374Z,21.1
2022-07-29T05:56:00.287Z,21.4
2022-07-29T05:57:00.372Z,21.6
2022-07-29T05:58:00.309Z,21.4
2022-07-29T05:59:00.319Z,21.5
2022-07-29T06:00:00.386Z,21.5
2022-07-29T06:01:00.561Z,21.8
2022-07-29T06:02:00.393Z,21.7
2022-07-29T06:03:00.365Z,21.7
2022-07-29T06:04:00.385Z,21.7
2022-07-29T06:05:00.402Z,21.9
2022-07-29T06:06:00.390Z,22.1
2022-07-29T06:07:00.371Z,22.2
2022-07-29T06:08:00.458Z,21.7
2022-07-29T06:09:00.364Z,21.7
2022-07-29T06:10:00.329Z,21.8
2022-07-29T06:11:00.344Z,22.0
2022-07-29T06:12:00.474Z,22.0
2022-07-29T06:13:00.399Z,21.7
2022-07-29T06:14:00.315Z,21.5
2022-07-29T06:15:00.379Z,21.5
2022-07-29T06:16:00.413Z,21.0
2022-07-29T06:17:00.412Z,21.2
2022-07-29T06:18:01.671Z,21.2
2022-07-29T06:19:00.310Z,21.3
2022-07-29T06:20:00.302Z,21.3
2022-07-29T06:21:00.340Z,21.4
2022-07-29T06:22:00.376Z,21.4
2022-07-29T06:23:00.398Z,21.5
2022-07-29T06:24:00.310Z,21.5
2022-07-29T06:25:00.324Z,21.8
2022-07-29T06:26:00.307Z,21.9
2022-07-29T06:27:00.387Z,21.9
2022-07-29T06:28:00.296Z,21.7
2022-07-29T06:29:00.282Z,21.8
2022-07-29T06:30:00.303Z,21.3
2022-07-29T06:31:00.444Z,21.1
2022-07-29T06:32:00.331Z,21.5
2022-07-29T06:33:00.800Z,21.2
2022-07-29T06:34:00.330Z,21.3
2022-07-29T06:35:33.054Z,21.0
2022-07-29T06:36:00.294Z,21.1
2022-07-29T06:37:00.284Z,20.5
2022-07-29T06:38:00.386Z,20.4
2022-07-29T06:39:00.414Z,20.4
2022-07-29T06:40:00.312Z,20.5
2022-07-29T06:41:00.298Z,20.7
2022-07-29T06:42:00.346Z,20.5
2022-07-29T06:43:00.290Z,20.4
2022-07-29T06:44:00.300Z,20.4
2022-07-29T06:45:00.401Z,20.3
2022-07-29T06:46:00.456Z,20.3
2022-07-29T06:47:00.352Z,20.2
2022-07-29T06:48:00.367Z,19.9
2022-07-29T06:49:00.429Z,20.2
2022-07-29T06:50:00.382Z,20.4
2022-07-29T06:51:00.381Z,20.4
2022-07-29T06:52:00.326Z,20.6
2022-07-29T06:53:00.443Z,20.4
2022-07-29T06:54:02.958Z,20.6
2022-07-29T06:55:00.322Z,21.0
2022-07-29T06:56:00.303Z,21.0
2022-07-29T06:57:00.413Z,20.9
2022-07-29T06:58:00.300Z,21.1
2022-07-29T06:59:00.295Z,21.0
2022-07-29T07:00:00.314Z,20.9
2022-07-29T07:01:00.321Z,21.2
2022-07-29T07:02:00.701Z,21.3
2022-07-29T07:03:00.738Z,21.5
2022-07-29T07:04:00.541Z,21.0
2022-07-29T07:05:00.712Z,20.7
2022-07-29T07:06:00.713Z,20.7
2022-07-29T07:07:00.433Z,20.8
2022-07-29T07:08:00.401Z,20.8
2022-07-29T07:09:00.374Z,20.4
2022-07-29T07:10:00.368Z,20.8
2022-07-29T07:11:00.498Z,21.1
2022-07-29T07:12:00.504Z,21.2
2022-07-29T07:13:00.338Z,21.2
2022-07-29T07:14:03.516Z,21.4
2022-07-29T07:15:00.676Z,21.7
2022-07-29T07:16:00.284Z,21.4
2022-07-29T07:17:00.384Z,21.6
2022-07-29T07:18:00.327Z,21.3
2022-07-29T07:19:00.301Z,21.0
2022-07-29T07:20:00.351Z,21.0
2022-07-29T07:21:00.820Z,20.8
2022-07-29T07:22:00.316Z,20.8
2022-07-29T07:23:00.329Z,20.7
2022-07-29T07:24:00.572Z,21.1
2022-07-29T07:25:00.380Z,21.3
2022-07-29T07:26:00.489Z,21.6
2022-07-29T07:27:00.469Z,21.8
2022-07-29T07:28:00.421Z,21.8
2022-07-29T07:29:00.381Z,21.8
2022-07-29T07:30:00.516Z,22.2
2022-07-29T07:31:00.522Z,22.1
2022-07-29T07:32:01.170Z,22.3
2022-07-29T07:33:00.331Z,22.5
2022-07-29T07:34:00.310Z,22.3
2022-07-29T07:35:00.401Z,22.3
2022-07-29T07:36:00.748Z,22.0
2022-07-29T07:37:00.323Z,22.4
2022-07-29T07:38:00.356Z,22.5
2022-07-29T07:39:00.291Z,22.5
2022-07-29T07:40:00.471Z,22.6
2022-07-29T07:41:00.283Z,22.7
2022-07-29T07:42:00.392Z,22.6
2022-07-29T07:43:00.311Z,22.8
2022-07-29T07:44:00.333Z,22.6
2022-07-29T07:45:13.163Z,23.1
2022-07-29T07:46:00.488Z,23.2
2022-07-29T07:47:03.864Z,23.3
2022-07-29T07:48:00.460Z,23.0
2022-07-29T07:49:00.685Z,22.5
2022-07-29T07:50:00.671Z,22.6
2022-07-29T07:51:00.436Z,23.7
2022-07-29T07:52:00.374Z,24.1
2022-07-29T07:53:00.308Z,24.3
2022-07-29T07:54:00.306Z,24.6
2022-07-29T07:55:00.370Z,24.5
2022-07-29T07:56:10.443Z,24.2
2022-07-29T07:57:00.401Z,23.8
2022-07-29T07:58:00.476Z,24.3
2022-07-29T07:59:00.501Z,24.0
2022-07-29T08:00:00.339Z,23.4
2022-07-29T08:01:00.578Z,23.4
2022-07-29T08:02:00.377Z,23.0
2022-07-29T08:03:00.319Z,22.9
2022-07-29T08:04:00.298Z,22.5
2022-07-29T08:05:00.382Z,22.5
2022-07-29T08:06:00.343Z,22.6
2022-07-29T08:07:00.470Z,22.8
2022-07-29T08:08:00.327Z,22.7
2022-07-29T08:09:26.719Z,22.5
2022-07-29T08:10:00.396Z,22.5
2022-07-29T08:11:03.271Z,22.6
2022-07-29T08:12:00.411Z,22.5
2022-07-29T08:13:00.535Z,22.3
2022-07-29T08:14:00.424Z,22.5
2022-07-29T08:15:00.545Z,22.1
2022-07-29T08:16:00.771Z,21.8
2022-07-29T08:17:00.414Z,21.9
2022-07-29T08:18:03.119Z,22.1
2022-07-29T08:19:00.413Z,22.2
2022-07-29T08:20:00.512Z,22.2
2022-07-29T08:21:00.306Z,22.3
2022-07-29T08:22:00.747Z,21.7
2022-07-29T08:23:00.583Z,21.2
2022-07-29T08:24:04.090Z,20.9
2022-07-29T08:25:00.561Z,21.3
2022-07-29T08:26:00.382Z,21.4
2022-07-29T08:27:00.616Z,20.9
2022-07-29T08:28:00.615Z,21.4
2022-07-29T08:29:00.435Z,21.7
2022-07-29T08:30:00.418Z,21.2
2022-07-29T08:31:00.382Z,21.0
2022-07-29T08:32:00.349Z,20.9
2022-07-29T08:33:00.594Z,21.1
2022-07-29T08:34:00.762Z,21.6
2022-07-29T08:35:00.306Z,21.9
2022-07-29T08:36:00.307Z,21.7
2022-07-29T08:37:00.289Z,21.5
2022-07-29T08:38:00.294Z,21.7
2022-07-29T08:39:00.394Z,21.5
2022-07-29T08:40:00.278Z,21.5
2022-07-29T08:41:00.353Z,21.6
2022-07-29T08:42:00.546Z,21.6
2022-07-29T08:43:00.292Z,21.4
2022-07-29T08:44:00.352Z,21.5
2022-07-29T08:45:00.402Z,21.6
2022-07-29T08:46:00.324Z,21.4
2022-07-29T08:47:00.294Z,21.4
2022-07-29T08:48:00.315Z,21.5
2022-07-29T08:49:00.641Z,21.6
2022-07-29T08:50:00.322Z,22.1
2022-07-29T08:51:00.315Z,22.0
2022-07-29T08:52:00.414Z,22.0
2022-07-29T08:53:00.456Z,21.7
2022-07-29T08:54:00.323Z,21.7
2022-07-29T08:55:00.425Z,21.4
2022-07-29T08:56:00.290Z,21.3
2022-07-29T08:57:00.302Z,21.5
2022-07-29T08:58:00.313Z,21.1
2022-07-29T08:59:00.271Z,21.3
2022-07-29T09:00:04.831Z,21.2
2022-07-29T09:01:00.527Z,21.1
2022-07-29T09:02:00.527Z,21.2
2022-07-29T09:03:00.304Z,21.0
2022-07-29T09:04:00.348Z,21.2
2022-07-29T09:05:00.311Z,21.0
2022-07-29T09:06:00.505Z,20.9
2022-07-29T09:07:00.519Z,20.9
2022-07-29T09:08:00.291Z,20.8
2022-07-29T09:09:00.359Z,21.0
2022-07-29T09:10:00.478Z,21.1
2022-07-29T09:11:00.281Z,21.5
2022-07-29T09:12:00.291Z,21.2
2022-07-29T09:13:00.386Z,21.2
2022-07-29T09:14:00.290Z,20.8
2022-07-29T09:15:00.388Z,21.0
2022-07-29T09:16:02.530Z,20.7
2022-07-29T09:17:00.842Z,20.6
2022-07-29T09:18:00.301Z,20.5
2022-07-29T09:19:00.418Z,20.9
2022-07-29T09:20:00.292Z,21.1
2022-07-29T09:21:00.289Z,20.9
2022-07-29T09:22:00.467Z,20.7
2022-07-29T09:23:00.314Z,21.0
2022-07-29T09:24:00.307Z,21.0
2022-07-29T09:25:00.633Z,21.2
2022-07-29T09:26:00.295Z,20.5
2022-07-29T09:27:00.309Z,20.7
2022-07-29T09:28:00.413Z,21.0
2022-07-29T09:29:00.339Z,21.2
2022-07-29T09:30:00.414Z,21.5
2022-07-29T09:31:00.390Z,21.5
2022-07-29T09:32:00.387Z,21.4
2022-07-29T09:33:00.294Z,21.1
2022-07-29T09:34:00.297Z,21.4
2022-07-29T09:35:00.326Z,21.5
2022-07-29T09:36:00.583Z,21.3
2022-07-29T09:37:00.603Z,21.5
2022-07-29T09:38:00.313Z,21.8
2022-07-29T09:39:00.272Z,21.9
2022-07-29T09:40:00.417Z,22.2
2022-07-29T09:41:05.966Z,21.9
2022-07-29T09:42:00.290Z,21.6
2022-07-29T09:43:00.471Z,21.6
2022-07-29T09:44:00.580Z,21.0
2022-07-29T09:45:00.630Z,21.0
2022-07-29T09:46:00.655Z,21.0
2022-07-29T09:47:00.430Z,21.0
2022-07-29T09:48:00.698Z,21.1
2022-07-29T09:49:00.814Z,21.1
2022-07-29T09:50:00.849Z,20.8
2022-07-29T09:51:00.705Z,20.3
2022-07-29T09:52:00.585Z,20.2
2022-07-29T09:53:00.446Z,20.1
2022-07-29T09:54:00.275Z,20.2
2022-07-29T09:55:00.781Z,20.4
2022-07-29T09:56:00.374Z,20.1
2022-07-29T09:57:00.524Z,20.0
2022-07-29T09:58:00.667Z,20.3
2022-07-29T09:59:00.702Z,20.2
2022-07-29T10:00:00.542Z,20.2
2022-07-29T10:01:00.665Z,20.2
2022-07-29T10:02:00.524Z,19.9
2022-07-29T10:03:00.419Z,19.5
2022-07-29T10:04:00.527Z,19.6
2022-07-29T10:05:00.560Z,19.7
2022-07-29T10:06:00.489Z,19.9
2022-07-29T10:07:04.887Z,19.6
2022-07-29T10:08:00.329Z,19.8
2022-07-29T10:09:00.611Z,19.6
2022-07-29T10:10:00.323Z,19.7
2022-07-29T10:11:00.594Z,19.7
2022-07-29T10:12:00.496Z,19.7
2022-07-29T10:13:04.601Z,19.6
2022-07-29T10:14:00.332Z,19.5
2022-07-29T10:15:00.356Z,19.5
2022-07-29T10:16:00.445Z,19.4
2022-07-29T10:17:00.461Z,19.3
2022-07-29T10:18:00.663Z,19.2
2022-07-29T10:19:00.369Z,19.1
2022-07-29T10:20:00.341Z,19.0
2022-07-29T10:21:00.595Z,18.4
2022-07-29T10:22:00.659Z,18.7
2022-07-29T10:23:00.567Z,19.1
2022-07-29T10:24:01.260Z,19.1
2022-07-29T10:25:00.420Z,19.0
2022-07-29T10:26:00.304Z,19.4
2022-07-29T10:27:00.347Z,19.1
2022-07-29T10:28:00.378Z,19.2
2022-07-29T10:29:00.310Z,19.5
2022-07-29T10:30:00.565Z,19.6
2022-07-29T10:31:00.389Z,19.5
2022-07-29T10:32:00.342Z,19.2
2022-07-29T10:33:00.322Z,19.3
2022-07-29T10:34:00.368Z,19.5
2022-07-29T10:35:00.497Z,19.3
2022-07-29T10:36:00.638Z,19.7
2022-07-29T10:37:00.328Z,19.3
2022-07-29T10:38:00.441Z,19.1
2022-07-29T10:39:00.316Z,19.4
2022-07-29T10:40:00.310Z,19.4
2022-07-29T10:41:00.403Z,19.4
2022-07-29T10:42:00.347Z,18.9
2022-07-29T10:43:00.322Z,18.9
2022-07-29T10:44:00.609Z,18.9
2022-07-29T10:45:00.392Z,18.8
2022-07-29T10:46:00.376Z,18.9
2022-07-29T10:47:00.559Z,19.2
2022-07-29T10:48:00.391Z,19.3
2022-07-29T10:49:00.472Z,18.7
2022-07-29T10:50:01.127Z,18.7
2022-07-29T10:51:00.482Z,18.6
2022-07-29T10:52:00.830Z,18.7
2022-07-29T10:53:00.339Z,18.7
2022-07-29T10:54:00.371Z,18.9
2022-07-29T10:55:00.433Z,19.1
2022-07-29T10:56:00.716Z,19.2
2022-07-29T10:57:00.341Z,19.2
2022-07-29T10:58:00.299Z,19.1
2022-07-29T10:59:00.363Z,18.9
2022-07-29T11:00:00.371Z,18.7
2022-07-29T11:01:00.365Z,18.6
2022-07-29T11:02:27.669Z,18.7
2022-07-29T11:03:00.429Z,18.9
2022-07-29T11:04:00.425Z,18.7
2022-07-29T11:05:00.417Z,17.9
2022-07-29T11:06:00.523Z,17.9
2022-07-29T11:07:00.308Z,18.0
2022-07-29T11:08:00.391Z,18.0
2022-07-29T11:09:00.295Z,18.2
2022-07-29T11:10:00.462Z,18.2
2022-07-29T11:11:00.314Z,17.8
2022-07-29T11:12:00.874Z,17.8
2022-07-29T11:13:00.311Z,17.6
2022-07-29T11:14:00.458Z,17.8
2022-07-29T11:15:00.518Z,17.8
2022-07-29T11:16:00.284Z,17.5
2022-07-29T11:17:00.407Z,17.4
2022-07-29T11:18:00.488Z,17.5
2022-07-29T11:19:00.347Z,17.6
2022-07-29T11:20:00.473Z,17.3
2022-07-29T11:21:00.578Z,17.6
2022-07-29T11:22:00.539Z,17.7
2022-07-29T11:23:00.289Z,17.9
2022-07-29T11:24:00.655Z,18.2
2022-07-29T11:25:00.307Z,18.2
2022-07-29T11:26:00.386Z,18.1
2022-07-29T11:27:00.776Z,17.9
2022-07-29T11:28:00.304Z,18.4
2022-07-29T11:29:00.304Z,18.4
2022-07-29T11:30:01.151Z,18.2
2022-07-29T11:31:00.302Z,18.0
2022-07-29T11:32:00.398Z,18.1
2022-07-29T11:33:00.329Z,18.1
2022-07-29T11:34:05.516Z,17.7
2022-07-29T11:35:00.301Z,17.5
2022-07-29T11:36:00.760Z,17.2
2022-07-29T11:37:00.313Z,17.2
2022-07-29T11:38:00.485Z,16.9
2022-07-29T11:39:00.290Z,16.7
2022-07-29T11:40:02.149Z,17.0
2022-07-29T11:41:00.285Z,17.4
2022-07-29T11:42:04.876Z,17.4
2022-07-29T11:43:00.311Z,17.2
2022-07-29T11:44:00.423Z,16.9
2022-07-29T11:45:04.291Z,16.9
2022-07-29T11:46:00.273Z,16.7
2022-07-29T11:47:00.295Z,16.7
2022-07-29T11:48:27.665Z,16.9
2022-07-29T11:49:00.509Z,17.2
2022-07-29T11:50:00.491Z,17.1
2022-07-29T11:51:00.525Z,16.9
2022-07-29T11:52:00.749Z,16.9
2022-07-29T11:53:00.296Z,16.9
2022-07-29T11:54:05.107Z,17.0
2022-07-29T11:55:00.907Z,16.8
2022-07-29T11:56:00.514Z,16.6
2022-07-29T11:57:00.291Z,16.6
2022-07-29T11:58:04.328Z,16.7
2022-07-29T11:59:00.290Z,16.7
2022-07-29T12:00:09.569Z,16.7
2022-07-29T12:01:04.069Z,16.6
2022-07-29T12:02:25.522Z,16.6
2022-07-29T12:03:00.620Z,16.7
2022-07-29T12:04:00.478Z,16.4
2022-07-29T12:05:00.311Z,16.2
2022-07-29T12:06:00.296Z,16.3
2022-07-29T12:07:02.573Z,16.3
2022-07-29T12:08:00.417Z,15.9
2022-07-29T12:09:00.273Z,16.1
2022-07-29T12:10:00.280Z,15.9
2022-07-29T12:11:00.309Z,15.5
2022-07-29T12:12:04.758Z,15.7
2022-07-29T12:13:00.335Z,15.7
2022-07-29T12:14:00.390Z,15.6
2022-07-29T12:15:00.394Z,15.8
2022-07-29T12:16:00.470Z,16.1
2022-07-29T12:17:00.337Z,15.9
2022-07-29T12:18:03.900Z,15.9
2022-07-29T12:19:00.297Z,15.9
2022-07-29T12:20:00.396Z,16.1
2022-07-29T12:21:03.378Z,16.3
2022-07-29T12:22:02.177Z,16.3
2022-07-29T12:23:00.311Z,16.5
2022-07-29T12:24:09.130Z,16.8
2022-07-29T12:25:11.422Z,16.7
2022-07-29T12:26:00.371Z,16.5
2022-07-29T12:27:00.303Z,16.5
2022-07-29T12:28:00.312Z,16.3
2022-07-29T12:29:02.476Z,16.3
2022-07-29T12:30:00.326Z,15.9
2022-07-29T12:31:00.421Z,15.9
2022-07-29T12:32:00.708Z,15.9
2022-07-29T12:33:00.330Z,15.9
2022-07-29T12:34:00.347Z,15.8
2022-07-29T12:35:00.393Z,15.7
2022-07-29T12:36:06.744Z,15.6
2022-07-29T12:37:00.404Z,15.8
2022-07-29T12:38:00.312Z,16.0
2022-07-29T12:39:00.410Z,16.3
2022-07-29T12:40:00.369Z,16.0
2022-07-29T12:41:00.365Z,15.7
2022-07-29T12:42:04.741Z,15.7
2022-07-29T12:43:00.369Z,15.8
2022-07-29T12:44:00.281Z,16.1
2022-07-29T12:45:00.373Z,16.2
2022-07-29T12:46:00.300Z,16.5
2022-07-29T12:47:00.382Z,16.6
2022-07-29T12:48:00.297Z,16.4
2022-07-29T12:49:00.346Z,16.3
2022-07-29T12:50:00.311Z,16.3
2022-07-29T12:51:00.451Z,16.3
2022-07-29T12:52:00.619Z,16.4
2022-07-29T12:53:00.318Z,16.1
2022-07-29T12:54:00.301Z,15.8
2022-07-29T12:55:00.388Z,16.0
2022-07-29T12:56:00.324Z,16.1
2022-07-29T12:57:00.396Z,16.2
2022-07-29T12:58:00.307Z,16.0
2022-07-29T12:59:00.305Z,16.0
2022-07-29T13:00:00.302Z,16.0
2022-07-29T13:01:00.398Z,16.3
2022-07-29T13:02:00.777Z,16.0
2022-07-29T13:03:00.484Z,15.7
2022-07-29T13:04:00.279Z,15.9
2022-07-29T13:05:00.412Z,16.4
2022-07-29T13:06:00.307Z,16.0
2022-07-29T13:07:00.295Z,16.2
2022-07-29T13:08:00.295Z,16.3
2022-07-29T13:09:00.284Z,16.1
2022-07-29T13:10:00.329Z,16.2
2022-07-29T13:11:00.398Z,15.9
2022-07-29T13:12:00.582Z,15.8
2022-07-29T13:13:00.356Z,15.5
2022-07-29T13:14:05.976Z,15.6
2022-07-29T13:15:00.358Z,15.7
2022-07-29T13:16:00.311Z,15.8
2022-07-29T13:17:00.511Z,15.9
2022-07-29T13:18:00.491Z,16.1